<?xml version="1.0" encoding="UTF-8" standalone="no" ?>
<gpx xmlns="http://www.topografix.com/GPX/1/1" xmlns:xsi="http://www.w3.org/2001/XMLSchema-instance" xsi:schemaLocation="http://www.topografix.com/GPX/1/1 http://www.topografix.com/GPX/1/1/gpx.xsd" version="1.1" creator="VisuGPX - https://www.visugpx.com">
  <metadata>
    <name>combe marion et coillu bordel </name>
    <desc><![CDATA[ski de la combe marion vers le coillu aller et retour]]></desc>
  </metadata>
  <wpt lat="46.17959" lon="5.91672">
    <ele>494.96</ele>
    <name><![CDATA[001]]></name>
  </wpt>
  <wpt lat="45.96373" lon="6.77729">
    <ele>1768.94</ele>
    <name><![CDATA[002]]></name>
  </wpt>
  <wpt lat="45.92289" lon="6.48432">
    <ele>1547.84</ele>
    <name><![CDATA[003]]></name>
  </wpt>
  <wpt lat="45.92679" lon="6.51817">
    <ele>2077.52</ele>
    <name><![CDATA[004]]></name>
  </wpt>
  <wpt lat="46.17998" lon="5.91662">
    <ele>426.23</ele>
    <name><![CDATA[005]]></name>
  </wpt>
  <wpt lat="46.17981" lon="5.91659">
    <ele>599.98</ele>
    <name><![CDATA[006]]></name>
  </wpt>
  <wpt lat="46.25476" lon="5.92722">
    <ele>1635.8</ele>
    <name><![CDATA[007]]></name>
  </wpt>
  <wpt lat="46.25699" lon="5.92978">
    <ele>1441.61</ele>
    <name><![CDATA[008]]></name>
  </wpt>
  <trk>
    <name><![CDATA[ACTIVE LOG: 23 JAN 2010 16:16]]></name>
    <trkseg>
      <trkpt lat="46.2592" lon="5.99165">
        <ele>509.16</ele>
        <time>2010-01-23T15:16:25Z</time>
      </trkpt>
      <trkpt lat="46.25919" lon="5.99169">
        <ele>513.96</ele>
        <time>2010-01-23T15:17:01Z</time>
      </trkpt>
      <trkpt lat="46.25919" lon="5.99168">
        <ele>510.6</ele>
        <time>2010-01-23T15:17:03Z</time>
      </trkpt>
      <trkpt lat="46.25918" lon="5.99166">
        <ele>506.75</ele>
        <time>2010-01-23T15:17:14Z</time>
      </trkpt>
      <trkpt lat="46.25919" lon="5.99165">
        <ele>513.96</ele>
        <time>2010-01-23T15:17:15Z</time>
      </trkpt>
      <trkpt lat="46.25918" lon="5.99163">
        <ele>510.6</ele>
        <time>2010-01-23T15:17:20Z</time>
      </trkpt>
      <trkpt lat="46.25908" lon="5.99178">
        <ele>513.96</ele>
        <time>2010-01-23T15:17:32Z</time>
      </trkpt>
      <trkpt lat="46.25908" lon="5.99181">
        <ele>509.16</ele>
        <time>2010-01-23T15:17:34Z</time>
      </trkpt>
      <trkpt lat="46.25909" lon="5.99182">
        <ele>511.08</ele>
        <time>2010-01-23T15:17:35Z</time>
      </trkpt>
      <trkpt lat="46.25908" lon="5.99176">
        <ele>515.4</ele>
        <time>2010-01-23T15:17:58Z</time>
      </trkpt>
      <trkpt lat="46.25907" lon="5.99175">
        <ele>512.04</ele>
        <time>2010-01-23T15:17:59Z</time>
      </trkpt>
      <trkpt lat="46.25908" lon="5.99177">
        <ele>508.19</ele>
        <time>2010-01-23T15:18:15Z</time>
      </trkpt>
      <trkpt lat="46.25908" lon="5.99176">
        <ele>512.52</ele>
        <time>2010-01-23T15:18:16Z</time>
      </trkpt>
      <trkpt lat="46.2591" lon="5.99163">
        <ele>513.48</ele>
        <time>2010-01-23T15:18:44Z</time>
      </trkpt>
      <trkpt lat="46.25912" lon="5.99164">
        <ele>512.04</ele>
        <time>2010-01-23T15:18:49Z</time>
      </trkpt>
      <trkpt lat="46.2591" lon="5.99181">
        <ele>513.48</ele>
        <time>2010-01-23T15:19:28Z</time>
      </trkpt>
      <trkpt lat="46.25913" lon="5.9918">
        <ele>514.44</ele>
        <time>2010-01-23T15:20:04Z</time>
      </trkpt>
      <trkpt lat="46.25913" lon="5.99189">
        <ele>514.44</ele>
        <time>2010-01-23T15:20:33Z</time>
      </trkpt>
      <trkpt lat="46.25914" lon="5.99189">
        <ele>516.85</ele>
        <time>2010-01-23T15:21:28Z</time>
      </trkpt>
      <trkpt lat="46.25917" lon="5.99184">
        <ele>516.85</ele>
        <time>2010-01-23T15:21:53Z</time>
      </trkpt>
      <trkpt lat="46.25934" lon="5.99167">
        <ele>518.29</ele>
        <time>2010-01-23T15:22:09Z</time>
      </trkpt>
      <trkpt lat="46.25926" lon="5.99169">
        <ele>520.21</ele>
        <time>2010-01-23T15:22:34Z</time>
      </trkpt>
      <trkpt lat="46.25927" lon="5.99164">
        <ele>518.29</ele>
        <time>2010-01-23T15:22:52Z</time>
      </trkpt>
      <trkpt lat="46.2592" lon="5.99169">
        <ele>517.33</ele>
        <time>2010-01-23T15:23:12Z</time>
      </trkpt>
      <trkpt lat="46.25913" lon="5.99182">
        <ele>517.33</ele>
        <time>2010-01-23T15:23:44Z</time>
      </trkpt>
      <trkpt lat="46.2591" lon="5.99179">
        <ele>518.77</ele>
        <time>2010-01-23T15:25:24Z</time>
      </trkpt>
      <trkpt lat="46.2591" lon="5.99174">
        <ele>519.25</ele>
        <time>2010-01-23T15:26:26Z</time>
      </trkpt>
      <trkpt lat="46.2591" lon="5.99167">
        <ele>519.25</ele>
        <time>2010-01-23T15:26:51Z</time>
      </trkpt>
      <trkpt lat="46.25902" lon="5.99156">
        <ele>519.73</ele>
        <time>2010-01-23T15:27:18Z</time>
      </trkpt>
      <trkpt lat="46.25902" lon="5.9916">
        <ele>520.69</ele>
        <time>2010-01-23T15:28:05Z</time>
      </trkpt>
      <trkpt lat="46.25902" lon="5.99156">
        <ele>520.69</ele>
        <time>2010-01-23T15:28:28Z</time>
      </trkpt>
      <trkpt lat="46.25906" lon="5.99173">
        <ele>521.65</ele>
        <time>2010-01-23T15:30:05Z</time>
      </trkpt>
      <trkpt lat="46.25906" lon="5.99188">
        <ele>522.13</ele>
        <time>2010-01-23T15:30:48Z</time>
      </trkpt>
      <trkpt lat="46.25911" lon="5.99174">
        <ele>522.13</ele>
        <time>2010-01-23T15:31:21Z</time>
      </trkpt>
      <trkpt lat="46.25914" lon="5.99178">
        <ele>522.61</ele>
        <time>2010-01-23T15:32:07Z</time>
      </trkpt>
      <trkpt lat="46.25911" lon="5.99174">
        <ele>523.09</ele>
        <time>2010-01-23T15:32:35Z</time>
      </trkpt>
      <trkpt lat="46.25914" lon="5.99175">
        <ele>525.02</ele>
        <time>2010-01-23T15:32:52Z</time>
      </trkpt>
      <trkpt lat="46.25915" lon="5.99175">
        <ele>520.69</ele>
        <time>2010-01-23T15:32:56Z</time>
      </trkpt>
      <trkpt lat="46.25915" lon="5.99175">
        <ele>524.06</ele>
        <time>2010-01-23T15:32:58Z</time>
      </trkpt>
      <trkpt lat="46.25914" lon="5.99175">
        <ele>523.09</ele>
        <time>2010-01-23T15:32:59Z</time>
      </trkpt>
      <trkpt lat="46.25918" lon="5.99167">
        <ele>521.65</ele>
        <time>2010-01-23T15:33:17Z</time>
      </trkpt>
      <trkpt lat="46.25918" lon="5.99166">
        <ele>524.06</ele>
        <time>2010-01-23T15:33:19Z</time>
      </trkpt>
      <trkpt lat="46.25918" lon="5.99166">
        <ele>523.09</ele>
        <time>2010-01-23T15:33:23Z</time>
      </trkpt>
      <trkpt lat="46.25919" lon="5.9917">
        <ele>523.09</ele>
        <time>2010-01-23T15:33:30Z</time>
      </trkpt>
      <trkpt lat="46.25916" lon="5.99169">
        <ele>524.54</ele>
        <time>2010-01-23T15:36:14Z</time>
      </trkpt>
      <trkpt lat="46.25916" lon="5.99172">
        <ele>524.54</ele>
        <time>2010-01-23T15:37:09Z</time>
      </trkpt>
      <trkpt lat="46.25917" lon="5.99173">
        <ele>524.54</ele>
        <time>2010-01-23T15:37:28Z</time>
      </trkpt>
      <trkpt lat="46.25925" lon="5.99167">
        <ele>525.5</ele>
        <time>2010-01-23T15:37:43Z</time>
      </trkpt>
      <trkpt lat="46.25926" lon="5.99166">
        <ele>525.02</ele>
        <time>2010-01-23T15:38:03Z</time>
      </trkpt>
      <trkpt lat="46.25929" lon="5.99161">
        <ele>524.54</ele>
        <time>2010-01-23T15:38:21Z</time>
      </trkpt>
      <trkpt lat="46.25931" lon="5.99159">
        <ele>524.06</ele>
        <time>2010-01-23T15:38:28Z</time>
      </trkpt>
      <trkpt lat="46.25941" lon="5.99155">
        <ele>524.06</ele>
        <time>2010-01-23T15:39:00Z</time>
      </trkpt>
      <trkpt lat="46.25938" lon="5.99158">
        <ele>527.42</ele>
        <time>2010-01-23T15:39:27Z</time>
      </trkpt>
      <trkpt lat="46.25935" lon="5.99162">
        <ele>524.06</ele>
        <time>2010-01-23T15:39:42Z</time>
      </trkpt>
      <trkpt lat="46.25933" lon="5.99162">
        <ele>524.54</ele>
        <time>2010-01-23T15:39:58Z</time>
      </trkpt>
      <trkpt lat="46.25935" lon="5.99164">
        <ele>524.54</ele>
        <time>2010-01-23T15:40:06Z</time>
      </trkpt>
      <trkpt lat="46.25941" lon="5.99143">
        <ele>525.5</ele>
        <time>2010-01-23T15:40:39Z</time>
      </trkpt>
      <trkpt lat="46.25937" lon="5.99141">
        <ele>525.02</ele>
        <time>2010-01-23T15:40:43Z</time>
      </trkpt>
      <trkpt lat="46.25927" lon="5.9914">
        <ele>525.02</ele>
        <time>2010-01-23T15:40:59Z</time>
      </trkpt>
      <trkpt lat="46.25921" lon="5.99143">
        <ele>525.02</ele>
        <time>2010-01-23T15:41:12Z</time>
      </trkpt>
      <trkpt lat="46.25923" lon="5.9914">
        <ele>524.54</ele>
        <time>2010-01-23T15:41:47Z</time>
      </trkpt>
      <trkpt lat="46.25923" lon="5.99141">
        <ele>525.02</ele>
        <time>2010-01-23T15:42:25Z</time>
      </trkpt>
      <trkpt lat="46.25919" lon="5.99141">
        <ele>524.54</ele>
        <time>2010-01-23T15:42:31Z</time>
      </trkpt>
      <trkpt lat="46.25913" lon="5.99143">
        <ele>524.06</ele>
        <time>2010-01-23T15:42:50Z</time>
      </trkpt>
      <trkpt lat="46.25913" lon="5.99136">
        <ele>524.54</ele>
        <time>2010-01-23T15:43:28Z</time>
      </trkpt>
      <trkpt lat="46.25917" lon="5.99137">
        <ele>524.54</ele>
        <time>2010-01-23T15:43:41Z</time>
      </trkpt>
      <trkpt lat="46.25916" lon="5.99136">
        <ele>524.54</ele>
        <time>2010-01-23T15:43:47Z</time>
      </trkpt>
      <trkpt lat="46.25898" lon="5.99109">
        <ele>525.5</ele>
        <time>2010-01-23T15:43:56Z</time>
      </trkpt>
      <trkpt lat="46.25874" lon="5.99079">
        <ele>525.5</ele>
        <time>2010-01-23T15:44:00Z</time>
      </trkpt>
      <trkpt lat="46.25863" lon="5.99062">
        <ele>524.54</ele>
        <time>2010-01-23T15:44:04Z</time>
      </trkpt>
      <trkpt lat="46.25853" lon="5.99063">
        <ele>524.54</ele>
        <time>2010-01-23T15:44:08Z</time>
      </trkpt>
      <trkpt lat="46.25843" lon="5.99082">
        <ele>523.09</ele>
        <time>2010-01-23T15:44:11Z</time>
      </trkpt>
      <trkpt lat="46.25825" lon="5.99108">
        <ele>521.65</ele>
        <time>2010-01-23T15:44:15Z</time>
      </trkpt>
      <trkpt lat="46.25808" lon="5.99128">
        <ele>520.21</ele>
        <time>2010-01-23T15:44:18Z</time>
      </trkpt>
      <trkpt lat="46.25777" lon="5.99163">
        <ele>517.33</ele>
        <time>2010-01-23T15:44:23Z</time>
      </trkpt>
      <trkpt lat="46.25757" lon="5.99199">
        <ele>514.44</ele>
        <time>2010-01-23T15:44:27Z</time>
      </trkpt>
      <trkpt lat="46.25748" lon="5.99234">
        <ele>513.48</ele>
        <time>2010-01-23T15:44:30Z</time>
      </trkpt>
      <trkpt lat="46.2574" lon="5.99257">
        <ele>511.56</ele>
        <time>2010-01-23T15:44:32Z</time>
      </trkpt>
      <trkpt lat="46.25721" lon="5.9929">
        <ele>510.12</ele>
        <time>2010-01-23T15:44:35Z</time>
      </trkpt>
      <trkpt lat="46.25697" lon="5.9932">
        <ele>507.71</ele>
        <time>2010-01-23T15:44:38Z</time>
      </trkpt>
      <trkpt lat="46.25659" lon="5.99357">
        <ele>504.35</ele>
        <time>2010-01-23T15:44:42Z</time>
      </trkpt>
      <trkpt lat="46.25633" lon="5.9938">
        <ele>501.46</ele>
        <time>2010-01-23T15:44:45Z</time>
      </trkpt>
      <trkpt lat="46.25616" lon="5.99399">
        <ele>500.02</ele>
        <time>2010-01-23T15:44:48Z</time>
      </trkpt>
      <trkpt lat="46.25588" lon="5.99389">
        <ele>499.54</ele>
        <time>2010-01-23T15:44:53Z</time>
      </trkpt>
      <trkpt lat="46.25489" lon="5.99339">
        <ele>496.18</ele>
        <time>2010-01-23T15:45:02Z</time>
      </trkpt>
      <trkpt lat="46.25464" lon="5.99321">
        <ele>495.7</ele>
        <time>2010-01-23T15:45:04Z</time>
      </trkpt>
      <trkpt lat="46.25408" lon="5.99253">
        <ele>494.26</ele>
        <time>2010-01-23T15:45:11Z</time>
      </trkpt>
      <trkpt lat="46.25324" lon="5.99204">
        <ele>492.33</ele>
        <time>2010-01-23T15:45:20Z</time>
      </trkpt>
      <trkpt lat="46.25194" lon="5.99139">
        <ele>492.81</ele>
        <time>2010-01-23T15:45:30Z</time>
      </trkpt>
      <trkpt lat="46.25083" lon="5.99055">
        <ele>489.45</ele>
        <time>2010-01-23T15:45:39Z</time>
      </trkpt>
      <trkpt lat="46.24938" lon="5.99005">
        <ele>488.01</ele>
        <time>2010-01-23T15:45:49Z</time>
      </trkpt>
      <trkpt lat="46.24821" lon="5.98961">
        <ele>488.49</ele>
        <time>2010-01-23T15:45:58Z</time>
      </trkpt>
      <trkpt lat="46.24812" lon="5.98957">
        <ele>488.49</ele>
        <time>2010-01-23T15:45:59Z</time>
      </trkpt>
      <trkpt lat="46.2477" lon="5.98954">
        <ele>486.56</ele>
        <time>2010-01-23T15:46:04Z</time>
      </trkpt>
      <trkpt lat="46.24756" lon="5.98961">
        <ele>485.12</ele>
        <time>2010-01-23T15:46:07Z</time>
      </trkpt>
      <trkpt lat="46.24749" lon="5.98959">
        <ele>485.6</ele>
        <time>2010-01-23T15:46:10Z</time>
      </trkpt>
      <trkpt lat="46.24721" lon="5.98928">
        <ele>484.64</ele>
        <time>2010-01-23T15:46:15Z</time>
      </trkpt>
      <trkpt lat="46.24707" lon="5.98924">
        <ele>483.2</ele>
        <time>2010-01-23T15:46:18Z</time>
      </trkpt>
      <trkpt lat="46.24705" lon="5.9893">
        <ele>483.2</ele>
        <time>2010-01-23T15:46:19Z</time>
      </trkpt>
      <trkpt lat="46.247" lon="5.98949">
        <ele>483.2</ele>
        <time>2010-01-23T15:46:21Z</time>
      </trkpt>
      <trkpt lat="46.24667" lon="5.99017">
        <ele>481.76</ele>
        <time>2010-01-23T15:46:27Z</time>
      </trkpt>
      <trkpt lat="46.24607" lon="5.99135">
        <ele>478.39</ele>
        <time>2010-01-23T15:46:34Z</time>
      </trkpt>
      <trkpt lat="46.24597" lon="5.99154">
        <ele>477.91</ele>
        <time>2010-01-23T15:46:35Z</time>
      </trkpt>
      <trkpt lat="46.24544" lon="5.99258">
        <ele>474.07</ele>
        <time>2010-01-23T15:46:40Z</time>
      </trkpt>
      <trkpt lat="46.245" lon="5.99342">
        <ele>471.66</ele>
        <time>2010-01-23T15:46:44Z</time>
      </trkpt>
      <trkpt lat="46.24458" lon="5.99422">
        <ele>473.11</ele>
        <time>2010-01-23T15:46:48Z</time>
      </trkpt>
      <trkpt lat="46.24341" lon="5.99642">
        <ele>469.74</ele>
        <time>2010-01-23T15:46:59Z</time>
      </trkpt>
      <trkpt lat="46.24308" lon="5.99705">
        <ele>468.78</ele>
        <time>2010-01-23T15:47:02Z</time>
      </trkpt>
      <trkpt lat="46.24227" lon="5.99856">
        <ele>465.42</ele>
        <time>2010-01-23T15:47:09Z</time>
      </trkpt>
      <trkpt lat="46.24147" lon="5.99978">
        <ele>463.97</ele>
        <time>2010-01-23T15:47:15Z</time>
      </trkpt>
      <trkpt lat="46.24076" lon="6.00077">
        <ele>460.61</ele>
        <time>2010-01-23T15:47:20Z</time>
      </trkpt>
      <trkpt lat="46.24033" lon="6.00137">
        <ele>457.72</ele>
        <time>2010-01-23T15:47:23Z</time>
      </trkpt>
      <trkpt lat="46.23988" lon="6.002">
        <ele>454.36</ele>
        <time>2010-01-23T15:47:26Z</time>
      </trkpt>
      <trkpt lat="46.23942" lon="6.00265">
        <ele>451.48</ele>
        <time>2010-01-23T15:47:29Z</time>
      </trkpt>
      <trkpt lat="46.23895" lon="6.00332">
        <ele>449.07</ele>
        <time>2010-01-23T15:47:32Z</time>
      </trkpt>
      <trkpt lat="46.23787" lon="6.00485">
        <ele>446.19</ele>
        <time>2010-01-23T15:47:39Z</time>
      </trkpt>
      <trkpt lat="46.23653" lon="6.00674">
        <ele>444.27</ele>
        <time>2010-01-23T15:47:48Z</time>
      </trkpt>
      <trkpt lat="46.23615" lon="6.00728">
        <ele>442.34</ele>
        <time>2010-01-23T15:47:51Z</time>
      </trkpt>
      <trkpt lat="46.23575" lon="6.00779">
        <ele>440.9</ele>
        <time>2010-01-23T15:47:55Z</time>
      </trkpt>
      <trkpt lat="46.23542" lon="6.00799">
        <ele>442.34</ele>
        <time>2010-01-23T15:47:59Z</time>
      </trkpt>
      <trkpt lat="46.23528" lon="6.00826">
        <ele>440.9</ele>
        <time>2010-01-23T15:48:03Z</time>
      </trkpt>
      <trkpt lat="46.23533" lon="6.00849">
        <ele>439.94</ele>
        <time>2010-01-23T15:48:05Z</time>
      </trkpt>
      <trkpt lat="46.23511" lon="6.00884">
        <ele>440.42</ele>
        <time>2010-01-23T15:48:10Z</time>
      </trkpt>
      <trkpt lat="46.23451" lon="6.00841">
        <ele>439.46</ele>
        <time>2010-01-23T15:48:16Z</time>
      </trkpt>
      <trkpt lat="46.23444" lon="6.00809">
        <ele>440.42</ele>
        <time>2010-01-23T15:48:18Z</time>
      </trkpt>
      <trkpt lat="46.23417" lon="6.00612">
        <ele>443.31</ele>
        <time>2010-01-23T15:48:28Z</time>
      </trkpt>
      <trkpt lat="46.23345" lon="6.00435">
        <ele>442.82</ele>
        <time>2010-01-23T15:48:36Z</time>
      </trkpt>
      <trkpt lat="46.23183" lon="6.00153">
        <ele>439.94</ele>
        <time>2010-01-23T15:48:48Z</time>
      </trkpt>
      <trkpt lat="46.23137" lon="6.00076">
        <ele>436.58</ele>
        <time>2010-01-23T15:48:51Z</time>
      </trkpt>
      <trkpt lat="46.23121" lon="6.0005">
        <ele>437.06</ele>
        <time>2010-01-23T15:48:52Z</time>
      </trkpt>
      <trkpt lat="46.22977" lon="5.99823">
        <ele>440.9</ele>
        <time>2010-01-23T15:49:01Z</time>
      </trkpt>
      <trkpt lat="46.22961" lon="5.99798">
        <ele>440.42</ele>
        <time>2010-01-23T15:49:02Z</time>
      </trkpt>
      <trkpt lat="46.22809" lon="5.99555">
        <ele>443.79</ele>
        <time>2010-01-23T15:49:12Z</time>
      </trkpt>
      <trkpt lat="46.22779" lon="5.99506">
        <ele>444.75</ele>
        <time>2010-01-23T15:49:14Z</time>
      </trkpt>
      <trkpt lat="46.2272" lon="5.9941">
        <ele>448.11</ele>
        <time>2010-01-23T15:49:18Z</time>
      </trkpt>
      <trkpt lat="46.22691" lon="5.99363">
        <ele>449.07</ele>
        <time>2010-01-23T15:49:20Z</time>
      </trkpt>
      <trkpt lat="46.22456" lon="5.98975">
        <ele>446.19</ele>
        <time>2010-01-23T15:49:36Z</time>
      </trkpt>
      <trkpt lat="46.22365" lon="5.98827">
        <ele>449.07</ele>
        <time>2010-01-23T15:49:42Z</time>
      </trkpt>
      <trkpt lat="46.22321" lon="5.98754">
        <ele>451.96</ele>
        <time>2010-01-23T15:49:45Z</time>
      </trkpt>
      <trkpt lat="46.22277" lon="5.98682">
        <ele>453.88</ele>
        <time>2010-01-23T15:49:48Z</time>
      </trkpt>
      <trkpt lat="46.22048" lon="5.98303">
        <ele>452.92</ele>
        <time>2010-01-23T15:50:03Z</time>
      </trkpt>
      <trkpt lat="46.21848" lon="5.97923">
        <ele>450.52</ele>
        <time>2010-01-23T15:50:16Z</time>
      </trkpt>
      <trkpt lat="46.21697" lon="5.97625">
        <ele>452.92</ele>
        <time>2010-01-23T15:50:26Z</time>
      </trkpt>
      <trkpt lat="46.21679" lon="5.97599">
        <ele>452.92</ele>
        <time>2010-01-23T15:50:27Z</time>
      </trkpt>
      <trkpt lat="46.21625" lon="5.97527">
        <ele>456.28</ele>
        <time>2010-01-23T15:50:30Z</time>
      </trkpt>
      <trkpt lat="46.2157" lon="5.97461">
        <ele>459.65</ele>
        <time>2010-01-23T15:50:33Z</time>
      </trkpt>
      <trkpt lat="46.21513" lon="5.97402">
        <ele>463.49</ele>
        <time>2010-01-23T15:50:36Z</time>
      </trkpt>
      <trkpt lat="46.21456" lon="5.97346">
        <ele>466.86</ele>
        <time>2010-01-23T15:50:39Z</time>
      </trkpt>
      <trkpt lat="46.21378" lon="5.97274">
        <ele>470.22</ele>
        <time>2010-01-23T15:50:43Z</time>
      </trkpt>
      <trkpt lat="46.21275" lon="5.97197">
        <ele>473.11</ele>
        <time>2010-01-23T15:50:48Z</time>
      </trkpt>
      <trkpt lat="46.21233" lon="5.97167">
        <ele>474.07</ele>
        <time>2010-01-23T15:50:50Z</time>
      </trkpt>
      <trkpt lat="46.21005" lon="5.97042">
        <ele>473.59</ele>
        <time>2010-01-23T15:51:00Z</time>
      </trkpt>
      <trkpt lat="46.20909" lon="5.96994">
        <ele>472.14</ele>
        <time>2010-01-23T15:51:04Z</time>
      </trkpt>
      <trkpt lat="46.20836" lon="5.96958">
        <ele>471.18</ele>
        <time>2010-01-23T15:51:07Z</time>
      </trkpt>
      <trkpt lat="46.20711" lon="5.96898">
        <ele>468.78</ele>
        <time>2010-01-23T15:51:12Z</time>
      </trkpt>
      <trkpt lat="46.20451" lon="5.96813">
        <ele>466.86</ele>
        <time>2010-01-23T15:51:22Z</time>
      </trkpt>
      <trkpt lat="46.20226" lon="5.96693">
        <ele>465.42</ele>
        <time>2010-01-23T15:51:31Z</time>
      </trkpt>
      <trkpt lat="46.20022" lon="5.96517">
        <ele>464.45</ele>
        <time>2010-01-23T15:51:40Z</time>
      </trkpt>
      <trkpt lat="46.19791" lon="5.9634">
        <ele>463.97</ele>
        <time>2010-01-23T15:51:50Z</time>
      </trkpt>
      <trkpt lat="46.19648" lon="5.96258">
        <ele>466.38</ele>
        <time>2010-01-23T15:51:56Z</time>
      </trkpt>
      <trkpt lat="46.19471" lon="5.96117">
        <ele>470.22</ele>
        <time>2010-01-23T15:52:04Z</time>
      </trkpt>
      <trkpt lat="46.19429" lon="5.96077">
        <ele>470.7</ele>
        <time>2010-01-23T15:52:06Z</time>
      </trkpt>
      <trkpt lat="46.19368" lon="5.96012">
        <ele>472.63</ele>
        <time>2010-01-23T15:52:09Z</time>
      </trkpt>
      <trkpt lat="46.19273" lon="5.95895">
        <ele>476.47</ele>
        <time>2010-01-23T15:52:14Z</time>
      </trkpt>
      <trkpt lat="46.19236" lon="5.95848">
        <ele>477.43</ele>
        <time>2010-01-23T15:52:16Z</time>
      </trkpt>
      <trkpt lat="46.19199" lon="5.958">
        <ele>475.99</ele>
        <time>2010-01-23T15:52:18Z</time>
      </trkpt>
      <trkpt lat="46.19163" lon="5.95751">
        <ele>476.95</ele>
        <time>2010-01-23T15:52:20Z</time>
      </trkpt>
      <trkpt lat="46.18975" lon="5.95508">
        <ele>475.51</ele>
        <time>2010-01-23T15:52:30Z</time>
      </trkpt>
      <trkpt lat="46.18747" lon="5.95167">
        <ele>478.39</ele>
        <time>2010-01-23T15:52:43Z</time>
      </trkpt>
      <trkpt lat="46.18623" lon="5.94901">
        <ele>481.76</ele>
        <time>2010-01-23T15:52:52Z</time>
      </trkpt>
      <trkpt lat="46.1854" lon="5.94645">
        <ele>485.12</ele>
        <time>2010-01-23T15:53:00Z</time>
      </trkpt>
      <trkpt lat="46.18532" lon="5.94612">
        <ele>485.12</ele>
        <time>2010-01-23T15:53:01Z</time>
      </trkpt>
      <trkpt lat="46.18483" lon="5.94376">
        <ele>488.97</ele>
        <time>2010-01-23T15:53:08Z</time>
      </trkpt>
      <trkpt lat="46.18478" lon="5.94342">
        <ele>488.97</ele>
        <time>2010-01-23T15:53:09Z</time>
      </trkpt>
      <trkpt lat="46.1846" lon="5.94205">
        <ele>492.33</ele>
        <time>2010-01-23T15:53:13Z</time>
      </trkpt>
      <trkpt lat="46.18442" lon="5.93932">
        <ele>494.26</ele>
        <time>2010-01-23T15:53:21Z</time>
      </trkpt>
      <trkpt lat="46.18441" lon="5.93759">
        <ele>497.62</ele>
        <time>2010-01-23T15:53:26Z</time>
      </trkpt>
      <trkpt lat="46.1844" lon="5.93724">
        <ele>497.62</ele>
        <time>2010-01-23T15:53:27Z</time>
      </trkpt>
      <trkpt lat="46.1843" lon="5.93552">
        <ele>501.46</ele>
        <time>2010-01-23T15:53:32Z</time>
      </trkpt>
      <trkpt lat="46.18426" lon="5.93517">
        <ele>500.5</ele>
        <time>2010-01-23T15:53:33Z</time>
      </trkpt>
      <trkpt lat="46.18374" lon="5.93259">
        <ele>503.87</ele>
        <time>2010-01-23T15:53:41Z</time>
      </trkpt>
      <trkpt lat="46.18303" lon="5.93029">
        <ele>500.5</ele>
        <time>2010-01-23T15:53:50Z</time>
      </trkpt>
      <trkpt lat="46.18289" lon="5.9298">
        <ele>497.14</ele>
        <time>2010-01-23T15:53:52Z</time>
      </trkpt>
      <trkpt lat="46.18263" lon="5.92914">
        <ele>492.81</ele>
        <time>2010-01-23T15:53:55Z</time>
      </trkpt>
      <trkpt lat="46.18237" lon="5.92865">
        <ele>489.93</ele>
        <time>2010-01-23T15:53:58Z</time>
      </trkpt>
      <trkpt lat="46.18231" lon="5.92855">
        <ele>489.45</ele>
        <time>2010-01-23T15:53:59Z</time>
      </trkpt>
      <trkpt lat="46.18221" lon="5.92826">
        <ele>490.89</ele>
        <time>2010-01-23T15:54:06Z</time>
      </trkpt>
      <trkpt lat="46.18223" lon="5.92823">
        <ele>491.37</ele>
        <time>2010-01-23T15:54:07Z</time>
      </trkpt>
      <trkpt lat="46.18239" lon="5.9279">
        <ele>494.26</ele>
        <time>2010-01-23T15:54:12Z</time>
      </trkpt>
      <trkpt lat="46.18245" lon="5.92779">
        <ele>494.26</ele>
        <time>2010-01-23T15:54:13Z</time>
      </trkpt>
      <trkpt lat="46.1827" lon="5.92732">
        <ele>498.1</ele>
        <time>2010-01-23T15:54:17Z</time>
      </trkpt>
      <trkpt lat="46.18294" lon="5.92692">
        <ele>501.46</ele>
        <time>2010-01-23T15:54:20Z</time>
      </trkpt>
      <trkpt lat="46.18322" lon="5.92651">
        <ele>503.39</ele>
        <time>2010-01-23T15:54:23Z</time>
      </trkpt>
      <trkpt lat="46.18416" lon="5.92514">
        <ele>503.39</ele>
        <time>2010-01-23T15:54:33Z</time>
      </trkpt>
      <trkpt lat="46.18434" lon="5.92495">
        <ele>502.91</ele>
        <time>2010-01-23T15:54:35Z</time>
      </trkpt>
      <trkpt lat="46.18453" lon="5.92482">
        <ele>501.95</ele>
        <time>2010-01-23T15:54:37Z</time>
      </trkpt>
      <trkpt lat="46.18472" lon="5.92457">
        <ele>502.43</ele>
        <time>2010-01-23T15:54:43Z</time>
      </trkpt>
      <trkpt lat="46.18466" lon="5.92449">
        <ele>502.91</ele>
        <time>2010-01-23T15:54:44Z</time>
      </trkpt>
      <trkpt lat="46.18449" lon="5.92438">
        <ele>501.46</ele>
        <time>2010-01-23T15:54:46Z</time>
      </trkpt>
      <trkpt lat="46.18416" lon="5.92393">
        <ele>500.98</ele>
        <time>2010-01-23T15:54:51Z</time>
      </trkpt>
      <trkpt lat="46.18318" lon="5.92234">
        <ele>498.1</ele>
        <time>2010-01-23T15:55:01Z</time>
      </trkpt>
      <trkpt lat="46.18295" lon="5.92196">
        <ele>497.14</ele>
        <time>2010-01-23T15:55:03Z</time>
      </trkpt>
      <trkpt lat="46.18242" lon="5.9211">
        <ele>493.77</ele>
        <time>2010-01-23T15:55:08Z</time>
      </trkpt>
      <trkpt lat="46.18232" lon="5.92094">
        <ele>493.77</ele>
        <time>2010-01-23T15:55:09Z</time>
      </trkpt>
      <trkpt lat="46.18136" lon="5.91941">
        <ele>494.26</ele>
        <time>2010-01-23T15:55:20Z</time>
      </trkpt>
      <trkpt lat="46.1813" lon="5.91931">
        <ele>494.26</ele>
        <time>2010-01-23T15:55:21Z</time>
      </trkpt>
      <trkpt lat="46.18103" lon="5.91889">
        <ele>496.18</ele>
        <time>2010-01-23T15:55:28Z</time>
      </trkpt>
      <trkpt lat="46.18078" lon="5.91847">
        <ele>498.58</ele>
        <time>2010-01-23T15:55:32Z</time>
      </trkpt>
      <trkpt lat="46.18063" lon="5.91825">
        <ele>499.06</ele>
        <time>2010-01-23T15:55:34Z</time>
      </trkpt>
      <trkpt lat="46.18014" lon="5.91749">
        <ele>502.91</ele>
        <time>2010-01-23T15:55:42Z</time>
      </trkpt>
      <trkpt lat="46.18009" lon="5.9174">
        <ele>502.91</ele>
        <time>2010-01-23T15:55:43Z</time>
      </trkpt>
      <trkpt lat="46.17967" lon="5.91668">
        <ele>504.83</ele>
        <time>2010-01-23T15:55:52Z</time>
      </trkpt>
      <trkpt lat="46.1797" lon="5.9167">
        <ele>505.79</ele>
        <time>2010-01-23T15:56:00Z</time>
      </trkpt>
      <trkpt lat="46.17974" lon="5.91672">
        <ele>503.87</ele>
        <time>2010-01-23T15:56:08Z</time>
      </trkpt>
      <trkpt lat="46.17982" lon="5.91672">
        <ele>504.83</ele>
        <time>2010-01-23T15:56:27Z</time>
      </trkpt>
      <trkpt lat="46.17988" lon="5.91675">
        <ele>505.79</ele>
        <time>2010-01-23T15:57:00Z</time>
      </trkpt>
      <trkpt lat="46.17988" lon="5.91679">
        <ele>506.27</ele>
        <time>2010-01-23T15:57:15Z</time>
      </trkpt>
      <trkpt lat="46.17988" lon="5.91682">
        <ele>505.79</ele>
        <time>2010-01-23T15:57:21Z</time>
      </trkpt>
      <trkpt lat="46.17988" lon="5.91684">
        <ele>505.79</ele>
        <time>2010-01-23T15:57:34Z</time>
      </trkpt>
      <trkpt lat="46.17987" lon="5.91673">
        <ele>506.75</ele>
        <time>2010-01-23T15:58:05Z</time>
      </trkpt>
      <trkpt lat="46.17992" lon="5.91678">
        <ele>506.75</ele>
        <time>2010-01-23T15:58:28Z</time>
      </trkpt>
      <trkpt lat="46.17985" lon="5.91679">
        <ele>508.19</ele>
        <time>2010-01-23T15:58:57Z</time>
      </trkpt>
      <trkpt lat="46.18" lon="5.91655">
        <ele>507.23</ele>
        <time>2010-01-23T15:59:22Z</time>
      </trkpt>
      <trkpt lat="46.17905" lon="5.91688">
        <ele>508.19</ele>
        <time>2010-01-23T16:00:15Z</time>
      </trkpt>
      <trkpt lat="46.17923" lon="5.91695">
        <ele>507.71</ele>
        <time>2010-01-23T16:00:20Z</time>
      </trkpt>
      <trkpt lat="46.17924" lon="5.91701">
        <ele>508.19</ele>
        <time>2010-01-23T16:00:28Z</time>
      </trkpt>
      <trkpt lat="46.17904" lon="5.91688">
        <ele>508.19</ele>
        <time>2010-01-23T16:00:34Z</time>
      </trkpt>
      <trkpt lat="46.17903" lon="5.9168">
        <ele>509.16</ele>
        <time>2010-01-23T16:00:38Z</time>
      </trkpt>
      <trkpt lat="46.17914" lon="5.91677">
        <ele>508.67</ele>
        <time>2010-01-23T16:00:43Z</time>
      </trkpt>
      <trkpt lat="46.17916" lon="5.91674">
        <ele>508.67</ele>
        <time>2010-01-23T16:00:45Z</time>
      </trkpt>
      <trkpt lat="46.17919" lon="5.91672">
        <ele>508.67</ele>
        <time>2010-01-23T16:00:47Z</time>
      </trkpt>
      <trkpt lat="46.17951" lon="5.91661">
        <ele>508.19</ele>
        <time>2010-01-23T16:00:58Z</time>
      </trkpt>
      <trkpt lat="46.17956" lon="5.91653">
        <ele>508.19</ele>
        <time>2010-01-23T16:01:00Z</time>
      </trkpt>
      <trkpt lat="46.17947" lon="5.91645">
        <ele>508.67</ele>
        <time>2010-01-23T16:01:08Z</time>
      </trkpt>
      <trkpt lat="46.1794" lon="5.91663">
        <ele>508.19</ele>
        <time>2010-01-23T16:01:11Z</time>
      </trkpt>
      <trkpt lat="46.17934" lon="5.91677">
        <ele>507.71</ele>
        <time>2010-01-23T16:01:13Z</time>
      </trkpt>
      <trkpt lat="46.17931" lon="5.91692">
        <ele>508.19</ele>
        <time>2010-01-23T16:01:22Z</time>
      </trkpt>
      <trkpt lat="46.17932" lon="5.91694">
        <ele>509.64</ele>
        <time>2010-01-23T16:01:27Z</time>
      </trkpt>
      <trkpt lat="46.17932" lon="5.91687">
        <ele>509.16</ele>
        <time>2010-01-23T16:01:33Z</time>
      </trkpt>
      <trkpt lat="46.17913" lon="5.91684">
        <ele>509.64</ele>
        <time>2010-01-23T16:01:45Z</time>
      </trkpt>
      <trkpt lat="46.1791" lon="5.91679">
        <ele>509.64</ele>
        <time>2010-01-23T16:01:46Z</time>
      </trkpt>
      <trkpt lat="46.17891" lon="5.91627">
        <ele>509.64</ele>
        <time>2010-01-23T16:01:59Z</time>
      </trkpt>
      <trkpt lat="46.1788" lon="5.91659">
        <ele>510.6</ele>
        <time>2010-01-23T16:02:10Z</time>
      </trkpt>
      <trkpt lat="46.17885" lon="5.91667">
        <ele>510.12</ele>
        <time>2010-01-23T16:02:15Z</time>
      </trkpt>
      <trkpt lat="46.17886" lon="5.91674">
        <ele>510.12</ele>
        <time>2010-01-23T16:02:18Z</time>
      </trkpt>
      <trkpt lat="46.17858" lon="5.91688">
        <ele>512.52</ele>
        <time>2010-01-23T16:02:22Z</time>
      </trkpt>
      <trkpt lat="46.17903" lon="5.91657">
        <ele>512.52</ele>
        <time>2010-01-23T16:02:29Z</time>
      </trkpt>
      <trkpt lat="46.1795" lon="5.91658">
        <ele>512.52</ele>
        <time>2010-01-23T16:02:38Z</time>
      </trkpt>
      <trkpt lat="46.17968" lon="5.91667">
        <ele>512.52</ele>
        <time>2010-01-23T16:02:51Z</time>
      </trkpt>
      <trkpt lat="46.17972" lon="5.9167">
        <ele>512.52</ele>
        <time>2010-01-23T16:03:10Z</time>
      </trkpt>
      <trkpt lat="46.17971" lon="5.91677">
        <ele>513.96</ele>
        <time>2010-01-23T16:03:32Z</time>
      </trkpt>
      <trkpt lat="46.17975" lon="5.91677">
        <ele>513.48</ele>
        <time>2010-01-23T16:03:46Z</time>
      </trkpt>
      <trkpt lat="46.17973" lon="5.91677">
        <ele>513</ele>
        <time>2010-01-23T16:03:59Z</time>
      </trkpt>
      <trkpt lat="46.17975" lon="5.91674">
        <ele>513.48</ele>
        <time>2010-01-23T16:04:11Z</time>
      </trkpt>
      <trkpt lat="46.17978" lon="5.91671">
        <ele>514.44</ele>
        <time>2010-01-23T16:04:25Z</time>
      </trkpt>
      <trkpt lat="46.17982" lon="5.91668">
        <ele>513</ele>
        <time>2010-01-23T16:04:39Z</time>
      </trkpt>
      <trkpt lat="46.17984" lon="5.91668">
        <ele>513</ele>
        <time>2010-01-23T16:04:50Z</time>
      </trkpt>
      <trkpt lat="46.17986" lon="5.91666">
        <ele>513.48</ele>
        <time>2010-01-23T16:05:03Z</time>
      </trkpt>
      <trkpt lat="46.17985" lon="5.91673">
        <ele>513.96</ele>
        <time>2010-01-23T16:05:17Z</time>
      </trkpt>
      <trkpt lat="46.17981" lon="5.91673">
        <ele>513.96</ele>
        <time>2010-01-23T16:05:28Z</time>
      </trkpt>
      <trkpt lat="46.17969" lon="5.91672">
        <ele>513.96</ele>
        <time>2010-01-23T16:05:40Z</time>
      </trkpt>
      <trkpt lat="46.17968" lon="5.91673">
        <ele>513.48</ele>
        <time>2010-01-23T16:05:45Z</time>
      </trkpt>
      <trkpt lat="46.17984" lon="5.91673">
        <ele>513.48</ele>
        <time>2010-01-23T16:05:57Z</time>
      </trkpt>
      <trkpt lat="46.17981" lon="5.91671">
        <ele>513.48</ele>
        <time>2010-01-23T16:06:11Z</time>
      </trkpt>
      <trkpt lat="46.17988" lon="5.91669">
        <ele>513.96</ele>
        <time>2010-01-23T16:06:25Z</time>
      </trkpt>
      <trkpt lat="46.17983" lon="5.9167">
        <ele>513.96</ele>
        <time>2010-01-23T16:06:38Z</time>
      </trkpt>
      <trkpt lat="46.17982" lon="5.91669">
        <ele>513.96</ele>
        <time>2010-01-23T16:06:53Z</time>
      </trkpt>
      <trkpt lat="46.17983" lon="5.91669">
        <ele>513.96</ele>
        <time>2010-01-23T16:06:56Z</time>
      </trkpt>
      <trkpt lat="46.17985" lon="5.91666">
        <ele>514.44</ele>
        <time>2010-01-23T16:07:00Z</time>
      </trkpt>
      <trkpt lat="46.17983" lon="5.91678">
        <ele>514.44</ele>
        <time>2010-01-23T16:07:14Z</time>
      </trkpt>
      <trkpt lat="46.17982" lon="5.91678">
        <ele>514.44</ele>
        <time>2010-01-23T16:07:28Z</time>
      </trkpt>
      <trkpt lat="46.17983" lon="5.91676">
        <ele>514.92</ele>
        <time>2010-01-23T16:07:41Z</time>
      </trkpt>
      <trkpt lat="46.17982" lon="5.91681">
        <ele>514.92</ele>
        <time>2010-01-23T16:07:52Z</time>
      </trkpt>
      <trkpt lat="46.17976" lon="5.91676">
        <ele>515.4</ele>
        <time>2010-01-23T16:08:06Z</time>
      </trkpt>
      <trkpt lat="46.17967" lon="5.91673">
        <ele>515.4</ele>
        <time>2010-01-23T16:08:20Z</time>
      </trkpt>
      <trkpt lat="46.17966" lon="5.91673">
        <ele>515.88</ele>
        <time>2010-01-23T16:08:32Z</time>
      </trkpt>
      <trkpt lat="46.17959" lon="5.91672">
        <ele>515.4</ele>
        <time>2010-01-23T16:08:49Z</time>
      </trkpt>
      <trkpt lat="46.17956" lon="5.91672">
        <ele>515.4</ele>
        <time>2010-01-23T16:09:01Z</time>
      </trkpt>
      <trkpt lat="46.17956" lon="5.91669">
        <ele>515.88</ele>
        <time>2010-01-23T16:09:13Z</time>
      </trkpt>
      <trkpt lat="46.17961" lon="5.91665">
        <ele>515.4</ele>
        <time>2010-01-23T16:09:24Z</time>
      </trkpt>
      <trkpt lat="46.17965" lon="5.91665">
        <ele>515.88</ele>
        <time>2010-01-23T16:09:41Z</time>
      </trkpt>
      <trkpt lat="46.17965" lon="5.91664">
        <ele>516.37</ele>
        <time>2010-01-23T16:09:56Z</time>
      </trkpt>
      <trkpt lat="46.17967" lon="5.91663">
        <ele>515.88</ele>
        <time>2010-01-23T16:10:00Z</time>
      </trkpt>
      <trkpt lat="46.17967" lon="5.91663">
        <ele>515.88</ele>
        <time>2010-01-23T16:10:15Z</time>
      </trkpt>
      <trkpt lat="46.17977" lon="5.91665">
        <ele>515.88</ele>
        <time>2010-01-23T16:10:38Z</time>
      </trkpt>
      <trkpt lat="46.17979" lon="5.91664">
        <ele>515.88</ele>
        <time>2010-01-23T16:10:54Z</time>
      </trkpt>
      <trkpt lat="46.17978" lon="5.91668">
        <ele>515.88</ele>
        <time>2010-01-23T16:11:06Z</time>
      </trkpt>
      <trkpt lat="46.17974" lon="5.91668">
        <ele>516.37</ele>
        <time>2010-01-23T16:11:30Z</time>
      </trkpt>
      <trkpt lat="46.17971" lon="5.91669">
        <ele>515.4</ele>
        <time>2010-01-23T16:11:53Z</time>
      </trkpt>
      <trkpt lat="46.1797" lon="5.91666">
        <ele>515.4</ele>
        <time>2010-01-23T16:12:51Z</time>
      </trkpt>
      <trkpt lat="46.17983" lon="5.91665">
        <ele>515.4</ele>
        <time>2010-01-23T16:14:37Z</time>
      </trkpt>
      <trkpt lat="46.17979" lon="5.91661">
        <ele>514.92</ele>
        <time>2010-01-23T16:15:09Z</time>
      </trkpt>
      <trkpt lat="46.17974" lon="5.91668">
        <ele>515.88</ele>
        <time>2010-01-23T16:16:49Z</time>
      </trkpt>
      <trkpt lat="46.17976" lon="5.91658">
        <ele>516.37</ele>
        <time>2010-01-23T16:17:16Z</time>
      </trkpt>
      <trkpt lat="46.17975" lon="5.91673">
        <ele>514.92</ele>
        <time>2010-01-23T16:17:41Z</time>
      </trkpt>
      <trkpt lat="46.17976" lon="5.91681">
        <ele>516.37</ele>
        <time>2010-01-23T16:19:57Z</time>
      </trkpt>
      <trkpt lat="46.17972" lon="5.91666">
        <ele>516.85</ele>
        <time>2010-01-23T16:21:23Z</time>
      </trkpt>
      <trkpt lat="46.17975" lon="5.91674">
        <ele>517.33</ele>
        <time>2010-01-23T16:23:12Z</time>
      </trkpt>
      <trkpt lat="46.17974" lon="5.91678">
        <ele>516.85</ele>
        <time>2010-01-23T16:23:40Z</time>
      </trkpt>
      <trkpt lat="46.17981" lon="5.91677">
        <ele>517.33</ele>
        <time>2010-01-23T16:24:05Z</time>
      </trkpt>
      <trkpt lat="46.17975" lon="5.91674">
        <ele>517.33</ele>
        <time>2010-01-23T16:25:06Z</time>
      </trkpt>
      <trkpt lat="46.17972" lon="5.91668">
        <ele>516.37</ele>
        <time>2010-01-23T16:25:56Z</time>
      </trkpt>
      <trkpt lat="46.17983" lon="5.91662">
        <ele>517.33</ele>
        <time>2010-01-23T16:27:52Z</time>
      </trkpt>
      <trkpt lat="46.18001" lon="5.91661">
        <ele>517.33</ele>
        <time>2010-01-23T16:28:10Z</time>
      </trkpt>
      <trkpt lat="46.18005" lon="5.91657">
        <ele>516.37</ele>
        <time>2010-01-23T16:28:38Z</time>
      </trkpt>
      <trkpt lat="46.17979" lon="5.91664">
        <ele>517.33</ele>
        <time>2010-01-23T16:30:08Z</time>
      </trkpt>
      <trkpt lat="46.17977" lon="5.91666">
        <ele>517.33</ele>
        <time>2010-01-23T16:32:09Z</time>
      </trkpt>
      <trkpt lat="46.17976" lon="5.9167">
        <ele>518.29</ele>
        <time>2010-01-23T16:32:35Z</time>
      </trkpt>
      <trkpt lat="46.17986" lon="5.91668">
        <ele>518.29</ele>
        <time>2010-01-23T16:33:33Z</time>
      </trkpt>
      <trkpt lat="46.17973" lon="5.91657">
        <ele>517.81</ele>
        <time>2010-01-23T16:34:12Z</time>
      </trkpt>
      <trkpt lat="46.17989" lon="5.91667">
        <ele>518.29</ele>
        <time>2010-01-23T16:34:39Z</time>
      </trkpt>
      <trkpt lat="46.17974" lon="5.91664">
        <ele>518.29</ele>
        <time>2010-01-23T16:35:42Z</time>
      </trkpt>
      <trkpt lat="46.17979" lon="5.91673">
        <ele>519.73</ele>
        <time>2010-01-23T16:36:32Z</time>
      </trkpt>
      <trkpt lat="46.17973" lon="5.91664">
        <ele>519.73</ele>
        <time>2010-01-23T16:37:02Z</time>
      </trkpt>
      <trkpt lat="46.17974" lon="5.91669">
        <ele>520.21</ele>
        <time>2010-01-23T16:37:34Z</time>
      </trkpt>
      <trkpt lat="46.17977" lon="5.91672">
        <ele>521.17</ele>
        <time>2010-01-23T16:37:53Z</time>
      </trkpt>
      <trkpt lat="46.17976" lon="5.91662">
        <ele>521.17</ele>
        <time>2010-01-23T16:38:23Z</time>
      </trkpt>
      <trkpt lat="46.17972" lon="5.91654">
        <ele>520.69</ele>
        <time>2010-01-23T16:38:56Z</time>
      </trkpt>
      <trkpt lat="46.17979" lon="5.91669">
        <ele>521.65</ele>
        <time>2010-01-23T16:39:23Z</time>
      </trkpt>
      <trkpt lat="46.17988" lon="5.91675">
        <ele>522.61</ele>
        <time>2010-01-23T16:40:30Z</time>
      </trkpt>
      <trkpt lat="46.17996" lon="5.91678">
        <ele>522.13</ele>
        <time>2010-01-23T16:41:08Z</time>
      </trkpt>
      <trkpt lat="46.17988" lon="5.91667">
        <ele>522.61</ele>
        <time>2010-01-23T16:41:40Z</time>
      </trkpt>
      <trkpt lat="46.17981" lon="5.91661">
        <ele>522.61</ele>
        <time>2010-01-23T16:42:39Z</time>
      </trkpt>
      <trkpt lat="46.17987" lon="5.91669">
        <ele>522.13</ele>
        <time>2010-01-23T16:43:24Z</time>
      </trkpt>
      <trkpt lat="46.17978" lon="5.91661">
        <ele>522.61</ele>
        <time>2010-01-23T16:43:47Z</time>
      </trkpt>
      <trkpt lat="46.17982" lon="5.91662">
        <ele>521.65</ele>
        <time>2010-01-23T16:45:07Z</time>
      </trkpt>
      <trkpt lat="46.17987" lon="5.91665">
        <ele>521.65</ele>
        <time>2010-01-23T16:46:09Z</time>
      </trkpt>
      <trkpt lat="46.17981" lon="5.91658">
        <ele>520.69</ele>
        <time>2010-01-23T16:46:52Z</time>
      </trkpt>
      <trkpt lat="46.17983" lon="5.91662">
        <ele>521.65</ele>
        <time>2010-01-23T16:49:38Z</time>
      </trkpt>
      <trkpt lat="46.17996" lon="5.91656">
        <ele>521.17</ele>
        <time>2010-01-23T16:50:22Z</time>
      </trkpt>
      <trkpt lat="46.17998" lon="5.91649">
        <ele>520.69</ele>
        <time>2010-01-23T16:51:07Z</time>
      </trkpt>
      <trkpt lat="46.17999" lon="5.9164">
        <ele>520.21</ele>
        <time>2010-01-23T16:51:26Z</time>
      </trkpt>
      <trkpt lat="46.17992" lon="5.91659">
        <ele>519.73</ele>
        <time>2010-01-23T16:52:16Z</time>
      </trkpt>
      <trkpt lat="46.17988" lon="5.91652">
        <ele>519.25</ele>
        <time>2010-01-23T16:53:45Z</time>
      </trkpt>
      <trkpt lat="46.17987" lon="5.91634">
        <ele>519.73</ele>
        <time>2010-01-23T16:54:12Z</time>
      </trkpt>
      <trkpt lat="46.17992" lon="5.91654">
        <ele>519.73</ele>
        <time>2010-01-23T16:54:40Z</time>
      </trkpt>
      <trkpt lat="46.17985" lon="5.91666">
        <ele>519.25</ele>
        <time>2010-01-23T16:57:49Z</time>
      </trkpt>
      <trkpt lat="46.17989" lon="5.91675">
        <ele>518.77</ele>
        <time>2010-01-23T16:59:57Z</time>
      </trkpt>
      <trkpt lat="46.17987" lon="5.9167">
        <ele>519.25</ele>
        <time>2010-01-23T17:00:39Z</time>
      </trkpt>
      <trkpt lat="46.17984" lon="5.9168">
        <ele>518.77</ele>
        <time>2010-01-23T17:01:01Z</time>
      </trkpt>
      <trkpt lat="46.1798" lon="5.91676">
        <ele>518.77</ele>
        <time>2010-01-23T17:01:54Z</time>
      </trkpt>
      <trkpt lat="46.17979" lon="5.91672">
        <ele>518.77</ele>
        <time>2010-01-23T17:03:21Z</time>
      </trkpt>
      <trkpt lat="46.1798" lon="5.91663">
        <ele>518.77</ele>
        <time>2010-01-23T17:03:58Z</time>
      </trkpt>
      <trkpt lat="46.1798" lon="5.91662">
        <ele>518.29</ele>
        <time>2010-01-23T17:06:20Z</time>
      </trkpt>
      <trkpt lat="46.17988" lon="5.9166">
        <ele>518.29</ele>
        <time>2010-01-23T17:06:55Z</time>
      </trkpt>
      <trkpt lat="46.17983" lon="5.91665">
        <ele>518.77</ele>
        <time>2010-01-23T17:07:21Z</time>
      </trkpt>
      <trkpt lat="46.17978" lon="5.91672">
        <ele>518.77</ele>
        <time>2010-01-23T17:07:47Z</time>
      </trkpt>
      <trkpt lat="46.17986" lon="5.91664">
        <ele>518.29</ele>
        <time>2010-01-23T17:09:03Z</time>
      </trkpt>
      <trkpt lat="46.17985" lon="5.9168">
        <ele>517.81</ele>
        <time>2010-01-23T17:09:42Z</time>
      </trkpt>
      <trkpt lat="46.17988" lon="5.91673">
        <ele>517.33</ele>
        <time>2010-01-23T17:10:07Z</time>
      </trkpt>
      <trkpt lat="46.17984" lon="5.91663">
        <ele>517.33</ele>
        <time>2010-01-23T17:13:17Z</time>
      </trkpt>
      <trkpt lat="46.17988" lon="5.91664">
        <ele>515.4</ele>
        <time>2010-01-23T17:14:36Z</time>
      </trkpt>
      <trkpt lat="46.17989" lon="5.91664">
        <ele>516.85</ele>
        <time>2010-01-23T17:14:38Z</time>
      </trkpt>
      <trkpt lat="46.17987" lon="5.91661">
        <ele>516.85</ele>
        <time>2010-01-23T17:15:40Z</time>
      </trkpt>
      <trkpt lat="46.17983" lon="5.91671">
        <ele>515.4</ele>
        <time>2010-01-23T17:16:47Z</time>
      </trkpt>
      <trkpt lat="46.17978" lon="5.9168">
        <ele>515.88</ele>
        <time>2010-01-23T17:17:43Z</time>
      </trkpt>
      <trkpt lat="46.17977" lon="5.91676">
        <ele>514.92</ele>
        <time>2010-01-23T17:18:22Z</time>
      </trkpt>
      <trkpt lat="46.17982" lon="5.91667">
        <ele>513.96</ele>
        <time>2010-01-23T17:20:13Z</time>
      </trkpt>
      <trkpt lat="46.17986" lon="5.91668">
        <ele>513.96</ele>
        <time>2010-01-23T17:20:43Z</time>
      </trkpt>
      <trkpt lat="46.17997" lon="5.91652">
        <ele>512.52</ele>
        <time>2010-01-23T17:24:02Z</time>
      </trkpt>
      <trkpt lat="46.17985" lon="5.9166">
        <ele>511.56</ele>
        <time>2010-01-23T17:25:08Z</time>
      </trkpt>
      <trkpt lat="46.17979" lon="5.91674">
        <ele>510.6</ele>
        <time>2010-01-23T17:26:37Z</time>
      </trkpt>
      <trkpt lat="46.17983" lon="5.91656">
        <ele>511.08</ele>
        <time>2010-01-23T17:29:52Z</time>
      </trkpt>
      <trkpt lat="46.17986" lon="5.91663">
        <ele>511.08</ele>
        <time>2010-01-23T17:30:26Z</time>
      </trkpt>
      <trkpt lat="46.17981" lon="5.9167">
        <ele>510.12</ele>
        <time>2010-01-23T17:36:18Z</time>
      </trkpt>
      <trkpt lat="46.17986" lon="5.91662">
        <ele>510.12</ele>
        <time>2010-01-23T17:38:02Z</time>
      </trkpt>
      <trkpt lat="46.17985" lon="5.91664">
        <ele>509.64</ele>
        <time>2010-01-23T17:45:48Z</time>
      </trkpt>
      <trkpt lat="46.17979" lon="5.91668">
        <ele>509.64</ele>
        <time>2010-01-23T17:46:39Z</time>
      </trkpt>
      <trkpt lat="46.17982" lon="5.91663">
        <ele>510.6</ele>
        <time>2010-01-23T17:51:23Z</time>
      </trkpt>
      <trkpt lat="46.17982" lon="5.91667">
        <ele>510.12</ele>
        <time>2010-01-23T17:55:57Z</time>
      </trkpt>
      <trkpt lat="46.17984" lon="5.91659">
        <ele>510.12</ele>
        <time>2010-01-23T17:57:11Z</time>
      </trkpt>
      <trkpt lat="46.17975" lon="5.9166">
        <ele>510.12</ele>
        <time>2010-01-23T17:58:44Z</time>
      </trkpt>
      <trkpt lat="46.17988" lon="5.9165">
        <ele>510.12</ele>
        <time>2010-01-23T17:59:40Z</time>
      </trkpt>
      <trkpt lat="46.17997" lon="5.9163">
        <ele>509.16</ele>
        <time>2010-01-23T18:00:01Z</time>
      </trkpt>
      <trkpt lat="46.18004" lon="5.91625">
        <ele>510.12</ele>
        <time>2010-01-23T18:00:29Z</time>
      </trkpt>
      <trkpt lat="46.17977" lon="5.91665">
        <ele>509.64</ele>
        <time>2010-01-23T18:02:00Z</time>
      </trkpt>
      <trkpt lat="46.17977" lon="5.91676">
        <ele>509.64</ele>
        <time>2010-01-23T18:02:27Z</time>
      </trkpt>
      <trkpt lat="46.17969" lon="5.91689">
        <ele>510.12</ele>
        <time>2010-01-23T18:03:11Z</time>
      </trkpt>
      <trkpt lat="46.17974" lon="5.91689">
        <ele>509.16</ele>
        <time>2010-01-23T18:04:03Z</time>
      </trkpt>
      <trkpt lat="46.17985" lon="5.91666">
        <ele>509.16</ele>
        <time>2010-01-23T18:05:19Z</time>
      </trkpt>
      <trkpt lat="46.17978" lon="5.91646">
        <ele>509.16</ele>
        <time>2010-01-23T18:09:02Z</time>
      </trkpt>
      <trkpt lat="46.17978" lon="5.91647">
        <ele>509.64</ele>
        <time>2010-01-23T18:09:21Z</time>
      </trkpt>
      <trkpt lat="46.1798" lon="5.91656">
        <ele>509.16</ele>
        <time>2010-01-23T18:10:01Z</time>
      </trkpt>
      <trkpt lat="46.17981" lon="5.91659">
        <ele>509.16</ele>
        <time>2010-01-23T18:10:20Z</time>
      </trkpt>
      <trkpt lat="46.17986" lon="5.9165">
        <ele>509.64</ele>
        <time>2010-01-23T18:10:43Z</time>
      </trkpt>
      <trkpt lat="46.17989" lon="5.91646">
        <ele>509.16</ele>
        <time>2010-01-23T18:11:12Z</time>
      </trkpt>
      <trkpt lat="46.17988" lon="5.9166">
        <ele>508.67</ele>
        <time>2010-01-23T18:12:35Z</time>
      </trkpt>
      <trkpt lat="46.17986" lon="5.91666">
        <ele>508.67</ele>
        <time>2010-01-23T18:15:33Z</time>
      </trkpt>
      <trkpt lat="46.17985" lon="5.91664">
        <ele>508.67</ele>
        <time>2010-01-23T18:19:17Z</time>
      </trkpt>
      <trkpt lat="46.17983" lon="5.91669">
        <ele>507.71</ele>
        <time>2010-01-23T18:20:02Z</time>
      </trkpt>
      <trkpt lat="46.17995" lon="5.91658">
        <ele>507.71</ele>
        <time>2010-01-23T18:21:57Z</time>
      </trkpt>
      <trkpt lat="46.18003" lon="5.91644">
        <ele>508.19</ele>
        <time>2010-01-23T18:22:26Z</time>
      </trkpt>
      <trkpt lat="46.17994" lon="5.91649">
        <ele>507.71</ele>
        <time>2010-01-23T18:24:05Z</time>
      </trkpt>
      <trkpt lat="46.17988" lon="5.91656">
        <ele>507.71</ele>
        <time>2010-01-23T18:25:49Z</time>
      </trkpt>
      <trkpt lat="46.17987" lon="5.91665">
        <ele>507.71</ele>
        <time>2010-01-23T18:26:09Z</time>
      </trkpt>
      <trkpt lat="46.1799" lon="5.91653">
        <ele>507.23</ele>
        <time>2010-01-23T18:29:25Z</time>
      </trkpt>
      <trkpt lat="46.17984" lon="5.91658">
        <ele>507.71</ele>
        <time>2010-01-23T18:29:50Z</time>
      </trkpt>
      <trkpt lat="46.17982" lon="5.91663">
        <ele>507.23</ele>
        <time>2010-01-23T18:31:13Z</time>
      </trkpt>
      <trkpt lat="46.17985" lon="5.91658">
        <ele>506.75</ele>
        <time>2010-01-23T18:31:37Z</time>
      </trkpt>
      <trkpt lat="46.17983" lon="5.91667">
        <ele>506.75</ele>
        <time>2010-01-23T18:32:39Z</time>
      </trkpt>
      <trkpt lat="46.17993" lon="5.91651">
        <ele>506.27</ele>
        <time>2010-01-23T18:33:44Z</time>
      </trkpt>
      <trkpt lat="46.17992" lon="5.91651">
        <ele>506.75</ele>
        <time>2010-01-23T18:33:49Z</time>
      </trkpt>
    </trkseg>
  </trk>
</gpx>